sensor_id;sensor_type;location;lat;lon;timestamp;P1;durP1;ratioP1;P2;durP2;ratioP2
19782;SDS011;10051;40.294;-3.754;2023-08-07T00:00:13;6.38;;;1.67;;
19782;SDS011;10051;40.294;-3.754;2023-08-07T00:02:38;4.40;;;1.50;;
19782;SDS011;10051;40.294;-3.754;2023-08-07T00:05:05;5.28;;;1.67;;
19782;SDS011;10051;40.294;-3.754;2023-08-07T00:07:31;4.53;;;1.52;;
19782;SDS011;10051;40.294;-3.754;2023-08-07T00:09:57;6.95;;;1.50;;
19782;SDS011;10051;40.294;-3.754;2023-08-07T00:12:22;8.88;;;1.60;;
19782;SDS011;10051;40.294;-3.754;2023-08-07T00:14:50;6.78;;;1.55;;
19782;SDS011;10051;40.294;-3.754;2023-08-07T00:17:15;7.93;;;1.70;;
19782;SDS011;10051;40.294;-3.754;2023-08-07T00:19:41;6.65;;;1.50;;
19782;SDS011;10051;40.294;-3.754;2023-08-07T00:22:07;6.18;;;1.50;;
19782;SDS011;10051;40.294;-3.754;2023-08-07T00:24:32;6.97;;;1.55;;
19782;SDS011;10051;40.294;-3.754;2023-08-07T00:26:58;4.13;;;1.58;;
19782;SDS011;10051;40.294;-3.754;2023-08-07T00:29:24;4.93;;;1.55;;
19782;SDS011;10051;40.294;-3.754;2023-08-07T00:31:49;4.50;;;1.50;;
19782;SDS011;10051;40.294;-3.754;2023-08-07T00:34:15;4.10;;;1.50;;
19782;SDS011;10051;40.294;-3.754;2023-08-07T00:36:40;6.95;;;2.08;;
19782;SDS011;10051;40.294;-3.754;2023-08-07T00:39:06;7.22;;;1.65;;
19782;SDS011;10051;40.294;-3.754;2023-08-07T00:41:32;4.93;;;1.98;;
19782;SDS011;10051;40.294;-3.754;2023-08-07T00:43:58;7.82;;;2.53;;
19782;SDS011;10051;40.294;-3.754;2023-08-07T00:46:24;9.02;;;2.60;;
19782;SDS011;10051;40.294;-3.754;2023-08-07T00:48:50;9.65;;;4.22;;
19782;SDS011;10051;40.294;-3.754;2023-08-07T00:51:17;15.07;;;3.90;;
19782;SDS011;10051;40.294;-3.754;2023-08-07T00:53:43;8.60;;;3.30;;
19782;SDS011;10051;40.294;-3.754;2023-08-07T00:56:08;6.53;;;2.70;;
19782;SDS011;10051;40.294;-3.754;2023-08-07T00:58:34;9.20;;;2.85;;
19782;SDS011;10051;40.294;-3.754;2023-08-07T01:01:01;6.13;;;2.40;;
19782;SDS011;10051;40.294;-3.754;2023-08-07T01:03:27;7.53;;;2.38;;
19782;SDS011;10051;40.294;-3.754;2023-08-07T01:05:53;6.63;;;2.70;;
19782;SDS011;10051;40.294;-3.754;2023-08-07T01:08:19;9.75;;;3.00;;
19782;SDS011;10051;40.294;-3.754;2023-08-07T01:13:31;9.90;;;3.10;;
19782;SDS011;10051;40.294;-3.754;2023-08-07T01:16:01;6.07;;;2.95;;
19782;SDS011;10051;40.294;-3.754;2023-08-07T01:18:32;7.43;;;3.10;;
19782;SDS011;10051;40.294;-3.754;2023-08-07T01:21:01;6.30;;;2.80;;
19782;SDS011;10051;40.294;-3.754;2023-08-07T01:23:28;8.32;;;2.88;;
19782;SDS011;10051;40.294;-3.754;2023-08-07T01:25:54;11.02;;;3.20;;
19782;SDS011;10051;40.294;-3.754;2023-08-07T01:28:26;9.63;;;3.83;;
19782;SDS011;10051;40.294;-3.754;2023-08-07T01:30:59;10.00;;;4.20;;
19782;SDS011;10051;40.294;-3.754;2023-08-07T01:33:28;10.02;;;4.20;;
19782;SDS011;10051;40.294;-3.754;2023-08-07T01:36:05;8.80;;;3.72;;
19782;SDS011;10051;40.294;-3.754;2023-08-07T01:38:32;6.65;;;2.28;;
19782;SDS011;10051;40.294;-3.754;2023-08-07T01:40:58;7.80;;;2.08;;
19782;SDS011;10051;40.294;-3.754;2023-08-07T01:43:26;6.82;;;1.90;;
19782;SDS011;10051;40.294;-3.754;2023-08-07T01:45:52;8.65;;;1.80;;
19782;SDS011;10051;40.294;-3.754;2023-08-07T01:48:17;4.03;;;1.40;;
19782;SDS011;10051;40.294;-3.754;2023-08-07T01:50:43;3.97;;;1.60;;
19782;SDS011;10051;40.294;-3.754;2023-08-07T01:53:08;5.75;;;1.70;;
19782;SDS011;10051;40.294;-3.754;2023-08-07T01:55:34;8.38;;;1.48;;
19782;SDS011;10051;40.294;-3.754;2023-08-07T01:58:02;6.25;;;1.80;;
19782;SDS011;10051;40.294;-3.754;2023-08-07T02:00:27;9.57;;;1.70;;
19782;SDS011;10051;40.294;-3.754;2023-08-07T02:02:53;7.95;;;1.60;;
19782;SDS011;10051;40.294;-3.754;2023-08-07T02:05:19;6.55;;;1.50;;
19782;SDS011;10051;40.294;-3.754;2023-08-07T02:07:45;6.38;;;1.58;;
19782;SDS011;10051;40.294;-3.754;2023-08-07T02:10:11;7.70;;;1.63;;
19782;SDS011;10051;40.294;-3.754;2023-08-07T02:12:37;6.65;;;1.88;;
19782;SDS011;10051;40.294;-3.754;2023-08-07T02:15:02;8.82;;;1.70;;
19782;SDS011;10051;40.294;-3.754;2023-08-07T02:17:28;6.35;;;1.80;;
19782;SDS011;10051;40.294;-3.754;2023-08-07T02:19:56;6.88;;;1.80;;
19782;SDS011;10051;40.294;-3.754;2023-08-07T02:22:22;7.28;;;1.80;;
19782;SDS011;10051;40.294;-3.754;2023-08-07T02:24:48;7.28;;;1.60;;
19782;SDS011;10051;40.294;-3.754;2023-08-07T02:27:13;4.15;;;1.75;;
19782;SDS011;10051;40.294;-3.754;2023-08-07T02:29:39;6.85;;;1.60;;
19782;SDS011;10051;40.294;-3.754;2023-08-07T02:32:05;8.07;;;1.50;;
19782;SDS011;10051;40.294;-3.754;2023-08-07T02:34:30;5.43;;;1.38;;
19782;SDS011;10051;40.294;-3.754;2023-08-07T02:36:56;4.45;;;1.65;;
19782;SDS011;10051;40.294;-3.754;2023-08-07T02:39:23;3.67;;;1.50;;
19782;SDS011;10051;40.294;-3.754;2023-08-07T02:41:48;4.07;;;1.50;;
19782;SDS011;10051;40.294;-3.754;2023-08-07T02:44:14;5.28;;;1.60;;
19782;SDS011;10051;40.294;-3.754;2023-08-07T02:46:39;4.55;;;1.27;;
19782;SDS011;10051;40.294;-3.754;2023-08-07T02:49:05;5.35;;;1.55;;
19782;SDS011;10051;40.294;-3.754;2023-08-07T02:51:31;5.20;;;1.30;;
19782;SDS011;10051;40.294;-3.754;2023-08-07T02:53:57;6.25;;;1.60;;
19782;SDS011;10051;40.294;-3.754;2023-08-07T02:56:26;5.00;;;1.33;;
19782;SDS011;10051;40.294;-3.754;2023-08-07T02:58:51;4.40;;;1.50;;
19782;SDS011;10051;40.294;-3.754;2023-08-07T03:01:17;6.70;;;1.60;;
19782;SDS011;10051;40.294;-3.754;2023-08-07T03:03:42;6.60;;;1.60;;
19782;SDS011;10051;40.294;-3.754;2023-08-07T03:06:08;6.20;;;1.67;;
19782;SDS011;10051;40.294;-3.754;2023-08-07T03:08:34;6.00;;;1.50;;
19782;SDS011;10051;40.294;-3.754;2023-08-07T03:10:59;5.78;;;1.50;;
19782;SDS011;10051;40.294;-3.754;2023-08-07T03:13:25;7.13;;;1.60;;
19782;SDS011;10051;40.294;-3.754;2023-08-07T03:15:58;4.75;;;1.50;;
19782;SDS011;10051;40.294;-3.754;2023-08-07T03:18:27;5.28;;;1.70;;
19782;SDS011;10051;40.294;-3.754;2023-08-07T03:20:57;5.00;;;1.60;;
19782;SDS011;10051;40.294;-3.754;2023-08-07T03:23:23;6.93;;;1.70;;
19782;SDS011;10051;40.294;-3.754;2023-08-07T03:25:50;5.75;;;1.63;;
19782;SDS011;10051;40.294;-3.754;2023-08-07T03:28:26;5.20;;;1.50;;
19782;SDS011;10051;40.294;-3.754;2023-08-07T03:30:51;3.83;;;1.50;;
19782;SDS011;10051;40.294;-3.754;2023-08-07T03:33:17;7.55;;;2.00;;
19782;SDS011;10051;40.294;-3.754;2023-08-07T03:35:43;6.65;;;2.03;;
19782;SDS011;10051;40.294;-3.754;2023-08-07T03:38:08;7.63;;;1.85;;
19782;SDS011;10051;40.294;-3.754;2023-08-07T03:40:34;4.30;;;1.70;;
19782;SDS011;10051;40.294;-3.754;2023-08-07T03:42:59;3.53;;;1.60;;
19782;SDS011;10051;40.294;-3.754;2023-08-07T03:45:25;8.18;;;1.60;;
19782;SDS011;10051;40.294;-3.754;2023-08-07T03:47:51;5.03;;;1.70;;
19782;SDS011;10051;40.294;-3.754;2023-08-07T03:50:16;3.90;;;1.67;;
19782;SDS011;10051;40.294;-3.754;2023-08-07T03:52:42;6.75;;;1.90;;
19782;SDS011;10051;40.294;-3.754;2023-08-07T03:55:07;7.18;;;1.92;;
19782;SDS011;10051;40.294;-3.754;2023-08-07T03:57:33;8.13;;;1.80;;
19782;SDS011;10051;40.294;-3.754;2023-08-07T03:59:59;4.95;;;1.58;;
19782;SDS011;10051;40.294;-3.754;2023-08-07T04:02:24;4.68;;;1.58;;
19782;SDS011;10051;40.294;-3.754;2023-08-07T04:04:50;6.43;;;1.50;;
19782;SDS011;10051;40.294;-3.754;2023-08-07T04:07:19;7.25;;;1.60;;
19782;SDS011;10051;40.294;-3.754;2023-08-07T04:09:44;5.05;;;1.58;;
19782;SDS011;10051;40.294;-3.754;2023-08-07T04:12:10;6.85;;;1.73;;
19782;SDS011;10051;40.294;-3.754;2023-08-07T04:14:35;6.63;;;1.50;;
19782;SDS011;10051;40.294;-3.754;2023-08-07T04:17:01;7.25;;;1.52;;
19782;SDS011;10051;40.294;-3.754;2023-08-07T04:19:27;5.65;;;1.50;;
19782;SDS011;10051;40.294;-3.754;2023-08-07T04:21:53;8.52;;;1.50;;
19782;SDS011;10051;40.294;-3.754;2023-08-07T04:24:18;3.75;;;1.45;;
19782;SDS011;10051;40.294;-3.754;2023-08-07T04:26:44;4.22;;;1.50;;
19782;SDS011;10051;40.294;-3.754;2023-08-07T04:29:09;4.90;;;1.63;;
19782;SDS011;10051;40.294;-3.754;2023-08-07T04:31:35;4.55;;;1.48;;
19782;SDS011;10051;40.294;-3.754;2023-08-07T04:34:00;3.97;;;1.30;;
19782;SDS011;10051;40.294;-3.754;2023-08-07T04:36:26;4.22;;;1.33;;
19782;SDS011;10051;40.294;-3.754;2023-08-07T04:38:52;8.20;;;1.60;;
19782;SDS011;10051;40.294;-3.754;2023-08-07T04:41:17;6.07;;;1.70;;
19782;SDS011;10051;40.294;-3.754;2023-08-07T04:43:44;6.07;;;1.50;;
19782;SDS011;10051;40.294;-3.754;2023-08-07T04:46:09;2.88;;;1.13;;
19782;SDS011;10051;40.294;-3.754;2023-08-07T04:48:35;4.85;;;1.45;;
19782;SDS011;10051;40.294;-3.754;2023-08-07T04:51:01;6.05;;;1.50;;
19782;SDS011;10051;40.294;-3.754;2023-08-07T04:53:27;6.40;;;1.45;;
19782;SDS011;10051;40.294;-3.754;2023-08-07T04:55:52;4.93;;;1.55;;
19782;SDS011;10051;40.294;-3.754;2023-08-07T04:58:18;5.50;;;1.63;;
19782;SDS011;10051;40.294;-3.754;2023-08-07T05:00:44;5.15;;;1.63;;
19782;SDS011;10051;40.294;-3.754;2023-08-07T05:03:09;4.28;;;1.50;;
19782;SDS011;10051;40.294;-3.754;2023-08-07T05:05:35;4.55;;;1.50;;
19782;SDS011;10051;40.294;-3.754;2023-08-07T05:08:00;4.78;;;1.50;;
19782;SDS011;10051;40.294;-3.754;2023-08-07T05:10:26;5.85;;;1.50;;
19782;SDS011;10051;40.294;-3.754;2023-08-07T05:12:52;3.67;;;1.38;;
19782;SDS011;10051;40.294;-3.754;2023-08-07T05:15:23;5.30;;;1.38;;
19782;SDS011;10051;40.294;-3.754;2023-08-07T05:17:49;6.90;;;1.40;;
19782;SDS011;10051;40.294;-3.754;2023-08-07T05:20:16;6.57;;;1.50;;
19782;SDS011;10051;40.294;-3.754;2023-08-07T05:22:42;5.32;;;1.35;;
19782;SDS011;10051;40.294;-3.754;2023-08-07T05:25:08;5.43;;;1.48;;
19782;SDS011;10051;40.294;-3.754;2023-08-07T05:27:34;4.32;;;1.35;;
19782;SDS011;10051;40.294;-3.754;2023-08-07T05:30:00;5.93;;;1.38;;
19782;SDS011;10051;40.294;-3.754;2023-08-07T05:32:26;7.35;;;1.48;;
19782;SDS011;10051;40.294;-3.754;2023-08-07T05:34:52;2.97;;;1.27;;
19782;SDS011;10051;40.294;-3.754;2023-08-07T05:37:17;3.33;;;1.40;;
19782;SDS011;10051;40.294;-3.754;2023-08-07T05:39:43;4.50;;;1.30;;
19782;SDS011;10051;40.294;-3.754;2023-08-07T05:42:08;3.53;;;1.40;;
19782;SDS011;10051;40.294;-3.754;2023-08-07T05:44:35;3.40;;;1.33;;
19782;SDS011;10051;40.294;-3.754;2023-08-07T05:47:01;6.28;;;1.30;;
19782;SDS011;10051;40.294;-3.754;2023-08-07T05:49:26;3.17;;;1.30;;
19782;SDS011;10051;40.294;-3.754;2023-08-07T05:51:52;3.92;;;1.50;;
19782;SDS011;10051;40.294;-3.754;2023-08-07T05:54:18;5.55;;;1.33;;
19782;SDS011;10051;40.294;-3.754;2023-08-07T05:56:43;5.60;;;1.40;;
19782;SDS011;10051;40.294;-3.754;2023-08-07T05:59:09;4.22;;;1.33;;
19782;SDS011;10051;40.294;-3.754;2023-08-07T06:01:35;7.40;;;1.40;;
19782;SDS011;10051;40.294;-3.754;2023-08-07T06:04:02;4.85;;;1.50;;
19782;SDS011;10051;40.294;-3.754;2023-08-07T06:06:27;3.88;;;1.27;;
19782;SDS011;10051;40.294;-3.754;2023-08-07T06:08:55;4.60;;;1.60;;
19782;SDS011;10051;40.294;-3.754;2023-08-07T06:11:21;4.55;;;1.30;;
19782;SDS011;10051;40.294;-3.754;2023-08-07T06:13:47;5.38;;;1.40;;
19782;SDS011;10051;40.294;-3.754;2023-08-07T06:16:13;5.43;;;1.35;;
19782;SDS011;10051;40.294;-3.754;2023-08-07T06:18:39;6.95;;;1.50;;
19782;SDS011;10051;40.294;-3.754;2023-08-07T06:21:04;3.38;;;1.23;;
19782;SDS011;10051;40.294;-3.754;2023-08-07T06:23:32;5.75;;;1.23;;
19782;SDS011;10051;40.294;-3.754;2023-08-07T06:25:58;4.03;;;1.40;;
19782;SDS011;10051;40.294;-3.754;2023-08-07T06:28:23;5.40;;;1.40;;
19782;SDS011;10051;40.294;-3.754;2023-08-07T06:30:49;11.68;;;2.17;;
19782;SDS011;10051;40.294;-3.754;2023-08-07T06:33:15;7.75;;;1.60;;
19782;SDS011;10051;40.294;-3.754;2023-08-07T06:35:40;7.63;;;1.90;;
19782;SDS011;10051;40.294;-3.754;2023-08-07T06:38:07;4.50;;;1.40;;
19782;SDS011;10051;40.294;-3.754;2023-08-07T06:40:37;5.90;;;1.30;;
19782;SDS011;10051;40.294;-3.754;2023-08-07T06:43:03;7.28;;;1.33;;
19782;SDS011;10051;40.294;-3.754;2023-08-07T06:45:28;6.50;;;1.27;;
19782;SDS011;10051;40.294;-3.754;2023-08-07T06:47:54;4.93;;;1.20;;
19782;SDS011;10051;40.294;-3.754;2023-08-07T06:50:21;7.05;;;1.40;;
19782;SDS011;10051;40.294;-3.754;2023-08-07T06:52:46;3.78;;;1.20;;
19782;SDS011;10051;40.294;-3.754;2023-08-07T06:55:12;5.38;;;1.38;;
19782;SDS011;10051;40.294;-3.754;2023-08-07T06:57:37;4.43;;;1.35;;
19782;SDS011;10051;40.294;-3.754;2023-08-07T07:00:06;7.05;;;1.50;;
19782;SDS011;10051;40.294;-3.754;2023-08-07T07:02:32;7.30;;;1.40;;
19782;SDS011;10051;40.294;-3.754;2023-08-07T07:04:57;8.98;;;1.30;;
19782;SDS011;10051;40.294;-3.754;2023-08-07T07:07:23;4.50;;;1.40;;
19782;SDS011;10051;40.294;-3.754;2023-08-07T07:09:49;5.00;;;1.40;;
19782;SDS011;10051;40.294;-3.754;2023-08-07T07:12:15;5.72;;;1.40;;
19782;SDS011;10051;40.294;-3.754;2023-08-07T07:14:40;7.25;;;1.30;;
19782;SDS011;10051;40.294;-3.754;2023-08-07T07:17:06;6.32;;;1.30;;
19782;SDS011;10051;40.294;-3.754;2023-08-07T07:19:34;5.13;;;1.60;;
19782;SDS011;10051;40.294;-3.754;2023-08-07T07:22:00;4.15;;;1.40;;
19782;SDS011;10051;40.294;-3.754;2023-08-07T07:24:25;6.78;;;1.48;;
19782;SDS011;10051;40.294;-3.754;2023-08-07T07:26:51;6.30;;;1.33;;
19782;SDS011;10051;40.294;-3.754;2023-08-07T07:29:17;10.18;;;1.77;;
19782;SDS011;10051;40.294;-3.754;2023-08-07T07:31:43;5.78;;;1.35;;
19782;SDS011;10051;40.294;-3.754;2023-08-07T07:34:09;2.65;;;1.38;;
19782;SDS011;10051;40.294;-3.754;2023-08-07T07:36:35;7.75;;;1.88;;
19782;SDS011;10051;40.294;-3.754;2023-08-07T07:39:00;8.73;;;1.58;;
19782;SDS011;10051;40.294;-3.754;2023-08-07T07:41:26;10.32;;;1.83;;
19782;SDS011;10051;40.294;-3.754;2023-08-07T07:43:52;7.68;;;1.48;;
19782;SDS011;10051;40.294;-3.754;2023-08-07T07:46:18;7.63;;;1.42;;
19782;SDS011;10051;40.294;-3.754;2023-08-07T07:48:44;4.40;;;1.20;;
19782;SDS011;10051;40.294;-3.754;2023-08-07T07:51:09;5.78;;;1.60;;
19782;SDS011;10051;40.294;-3.754;2023-08-07T07:53:35;4.43;;;1.65;;
19782;SDS011;10051;40.294;-3.754;2023-08-07T07:56:01;3.80;;;1.40;;
19782;SDS011;10051;40.294;-3.754;2023-08-07T07:58:26;8.38;;;1.40;;
19782;SDS011;10051;40.294;-3.754;2023-08-07T08:00:52;5.93;;;1.58;;
19782;SDS011;10051;40.294;-3.754;2023-08-07T08:03:19;13.65;;;1.88;;
19782;SDS011;10051;40.294;-3.754;2023-08-07T08:05:48;3.78;;;1.50;;
19782;SDS011;10051;40.294;-3.754;2023-08-07T08:08:14;9.52;;;1.83;;
19782;SDS011;10051;40.294;-3.754;2023-08-07T08:10:40;8.40;;;1.80;;
19782;SDS011;10051;40.294;-3.754;2023-08-07T08:13:08;7.55;;;1.73;;
19782;SDS011;10051;40.294;-3.754;2023-08-07T08:15:34;9.65;;;1.70;;
19782;SDS011;10051;40.294;-3.754;2023-08-07T08:17:59;7.95;;;1.77;;
19782;SDS011;10051;40.294;-3.754;2023-08-07T08:20:25;6.85;;;1.60;;
19782;SDS011;10051;40.294;-3.754;2023-08-07T08:22:51;6.45;;;1.70;;
19782;SDS011;10051;40.294;-3.754;2023-08-07T08:25:16;6.03;;;1.52;;
19782;SDS011;10051;40.294;-3.754;2023-08-07T08:27:45;8.05;;;1.50;;
19782;SDS011;10051;40.294;-3.754;2023-08-07T08:30:11;9.30;;;1.73;;
19782;SDS011;10051;40.294;-3.754;2023-08-07T08:32:37;6.57;;;1.90;;
19782;SDS011;10051;40.294;-3.754;2023-08-07T08:35:04;8.20;;;1.60;;
19782;SDS011;10051;40.294;-3.754;2023-08-07T08:37:30;4.95;;;1.70;;
19782;SDS011;10051;40.294;-3.754;2023-08-07T08:39:56;6.47;;;1.60;;
19782;SDS011;10051;40.294;-3.754;2023-08-07T08:42:22;10.73;;;1.60;;
19782;SDS011;10051;40.294;-3.754;2023-08-07T08:44:51;6.75;;;1.60;;
19782;SDS011;10051;40.294;-3.754;2023-08-07T08:47:18;5.10;;;1.65;;
19782;SDS011;10051;40.294;-3.754;2023-08-07T08:49:47;6.50;;;1.63;;
19782;SDS011;10051;40.294;-3.754;2023-08-07T08:52:16;8.15;;;1.60;;
19782;SDS011;10051;40.294;-3.754;2023-08-07T08:54:42;7.85;;;1.40;;
19782;SDS011;10051;40.294;-3.754;2023-08-07T08:57:09;5.13;;;1.63;;
19782;SDS011;10051;40.294;-3.754;2023-08-07T08:59:36;8.38;;;1.83;;
19782;SDS011;10051;40.294;-3.754;2023-08-07T09:02:02;8.48;;;1.60;;
19782;SDS011;10051;40.294;-3.754;2023-08-07T09:04:28;6.55;;;1.50;;
19782;SDS011;10051;40.294;-3.754;2023-08-07T09:06:54;7.13;;;1.60;;
19782;SDS011;10051;40.294;-3.754;2023-08-07T09:09:20;6.43;;;1.60;;
19782;SDS011;10051;40.294;-3.754;2023-08-07T09:11:46;4.90;;;1.48;;
19782;SDS011;10051;40.294;-3.754;2023-08-07T09:14:17;6.75;;;1.60;;
19782;SDS011;10051;40.294;-3.754;2023-08-07T09:16:47;8.15;;;2.20;;
19782;SDS011;10051;40.294;-3.754;2023-08-07T09:19:13;8.70;;;1.73;;
19782;SDS011;10051;40.294;-3.754;2023-08-07T09:21:39;9.32;;;1.50;;
19782;SDS011;10051;40.294;-3.754;2023-08-07T09:24:05;6.38;;;1.63;;
19782;SDS011;10051;40.294;-3.754;2023-08-07T09:26:33;5.32;;;1.50;;
19782;SDS011;10051;40.294;-3.754;2023-08-07T09:28:59;7.80;;;1.50;;
19782;SDS011;10051;40.294;-3.754;2023-08-07T09:31:26;11.93;;;1.75;;
19782;SDS011;10051;40.294;-3.754;2023-08-07T09:33:52;6.63;;;1.58;;
19782;SDS011;10051;40.294;-3.754;2023-08-07T09:36:18;4.97;;;1.50;;
19782;SDS011;10051;40.294;-3.754;2023-08-07T09:38:44;6.78;;;1.63;;
19782;SDS011;10051;40.294;-3.754;2023-08-07T09:41:17;7.70;;;1.50;;
19782;SDS011;10051;40.294;-3.754;2023-08-07T09:43:44;8.13;;;1.50;;
19782;SDS011;10051;40.294;-3.754;2023-08-07T09:46:10;8.48;;;1.50;;
19782;SDS011;10051;40.294;-3.754;2023-08-07T09:48:43;4.85;;;1.70;;
19782;SDS011;10051;40.294;-3.754;2023-08-07T09:51:09;3.70;;;1.60;;
19782;SDS011;10051;40.294;-3.754;2023-08-07T09:53:35;7.40;;;1.52;;
19782;SDS011;10051;40.294;-3.754;2023-08-07T09:56:01;9.27;;;1.52;;
19782;SDS011;10051;40.294;-3.754;2023-08-07T09:58:28;5.95;;;1.50;;
19782;SDS011;10051;40.294;-3.754;2023-08-07T10:00:54;6.75;;;1.60;;
19782;SDS011;10051;40.294;-3.754;2023-08-07T10:03:24;6.78;;;1.63;;
19782;SDS011;10051;40.294;-3.754;2023-08-07T10:05:51;13.38;;;2.05;;
19782;SDS011;10051;40.294;-3.754;2023-08-07T10:08:17;6.35;;;1.52;;
19782;SDS011;10051;40.294;-3.754;2023-08-07T10:10:43;9.18;;;1.60;;
19782;SDS011;10051;40.294;-3.754;2023-08-07T10:13:12;8.63;;;1.98;;
19782;SDS011;10051;40.294;-3.754;2023-08-07T10:15:39;6.07;;;1.60;;
19782;SDS011;10051;40.294;-3.754;2023-08-07T10:18:07;7.43;;;1.77;;
19782;SDS011;10051;40.294;-3.754;2023-08-07T10:20:33;7.07;;;1.65;;
19782;SDS011;10051;40.294;-3.754;2023-08-07T10:23:08;10.50;;;1.67;;
19782;SDS011;10051;40.294;-3.754;2023-08-07T10:25:37;8.32;;;1.63;;
19782;SDS011;10051;40.294;-3.754;2023-08-07T10:28:08;4.88;;;1.58;;
19782;SDS011;10051;40.294;-3.754;2023-08-07T10:30:35;7.50;;;1.42;;
19782;SDS011;10051;40.294;-3.754;2023-08-07T10:33:03;7.03;;;1.63;;
19782;SDS011;10051;40.294;-3.754;2023-08-07T10:35:31;10.70;;;1.70;;
19782;SDS011;10051;40.294;-3.754;2023-08-07T10:38:07;8.30;;;1.70;;
19782;SDS011;10051;40.294;-3.754;2023-08-07T10:40:34;7.38;;;1.70;;
19782;SDS011;10051;40.294;-3.754;2023-08-07T10:43:42;6.47;;;1.50;;
19782;SDS011;10051;40.294;-3.754;2023-08-07T10:46:10;5.45;;;1.67;;
19782;SDS011;10051;40.294;-3.754;2023-08-07T10:48:46;9.68;;;1.90;;
19782;SDS011;10051;40.294;-3.754;2023-08-07T10:51:19;6.22;;;1.55;;
19782;SDS011;10051;40.294;-3.754;2023-08-07T10:53:49;7.72;;;1.70;;
19782;SDS011;10051;40.294;-3.754;2023-08-07T10:56:17;10.27;;;1.70;;
19782;SDS011;10051;40.294;-3.754;2023-08-07T10:58:54;8.25;;;1.77;;
19782;SDS011;10051;40.294;-3.754;2023-08-07T11:03:55;8.27;;;1.73;;
19782;SDS011;10051;40.294;-3.754;2023-08-07T11:06:32;5.95;;;1.50;;
19782;SDS011;10051;40.294;-3.754;2023-08-07T11:09:01;6.18;;;1.60;;
19782;SDS011;10051;40.294;-3.754;2023-08-07T11:11:29;5.63;;;1.65;;
19782;SDS011;10051;40.294;-3.754;2023-08-07T11:13:55;11.23;;;1.70;;
19782;SDS011;10051;40.294;-3.754;2023-08-07T11:16:21;11.10;;;2.00;;
19782;SDS011;10051;40.294;-3.754;2023-08-07T11:18:47;6.28;;;1.63;;
19782;SDS011;10051;40.294;-3.754;2023-08-07T11:21:13;8.13;;;1.70;;
19782;SDS011;10051;40.294;-3.754;2023-08-07T11:23:42;5.35;;;1.50;;
19782;SDS011;10051;40.294;-3.754;2023-08-07T11:26:09;5.93;;;1.40;;
19782;SDS011;10051;40.294;-3.754;2023-08-07T11:28:35;9.98;;;1.70;;
19782;SDS011;10051;40.294;-3.754;2023-08-07T11:31:00;5.57;;;1.50;;
19782;SDS011;10051;40.294;-3.754;2023-08-07T11:33:27;7.68;;;1.65;;
19782;SDS011;10051;40.294;-3.754;2023-08-07T11:35:53;9.05;;;1.77;;
19782;SDS011;10051;40.294;-3.754;2023-08-07T11:38:36;8.95;;;1.60;;
19782;SDS011;10051;40.294;-3.754;2023-08-07T11:41:03;6.55;;;1.67;;
19782;SDS011;10051;40.294;-3.754;2023-08-07T11:43:31;7.07;;;1.77;;
19782;SDS011;10051;40.294;-3.754;2023-08-07T11:45:58;5.82;;;1.88;;
19782;SDS011;10051;40.294;-3.754;2023-08-07T11:48:29;7.43;;;1.70;;
19782;SDS011;10051;40.294;-3.754;2023-08-07T11:50:56;5.85;;;1.45;;
19782;SDS011;10051;40.294;-3.754;2023-08-07T11:53:24;4.13;;;1.55;;
19782;SDS011;10051;40.294;-3.754;2023-08-07T11:56:01;4.53;;;1.77;;
19782;SDS011;10051;40.294;-3.754;2023-08-07T11:58:39;7.18;;;1.50;;
19782;SDS011;10051;40.294;-3.754;2023-08-07T12:01:09;7.90;;;1.70;;
19782;SDS011;10051;40.294;-3.754;2023-08-07T12:03:37;9.00;;;1.58;;
19782;SDS011;10051;40.294;-3.754;2023-08-07T12:06:04;6.75;;;1.73;;
19782;SDS011;10051;40.294;-3.754;2023-08-07T12:08:35;9.15;;;1.73;;
19782;SDS011;10051;40.294;-3.754;2023-08-07T12:11:20;8.70;;;1.65;;
19782;SDS011;10051;40.294;-3.754;2023-08-07T12:13:48;7.43;;;1.60;;
19782;SDS011;10051;40.294;-3.754;2023-08-07T12:16:15;4.57;;;1.58;;
19782;SDS011;10051;40.294;-3.754;2023-08-07T12:18:45;6.47;;;1.50;;
19782;SDS011;10051;40.294;-3.754;2023-08-07T12:21:17;6.20;;;1.52;;
19782;SDS011;10051;40.294;-3.754;2023-08-07T12:23:50;4.85;;;1.50;;
19782;SDS011;10051;40.294;-3.754;2023-08-07T12:26:20;9.95;;;1.60;;
19782;SDS011;10051;40.294;-3.754;2023-08-07T12:28:45;8.80;;;1.55;;
19782;SDS011;10051;40.294;-3.754;2023-08-07T12:31:11;3.90;;;1.27;;
19782;SDS011;10051;40.294;-3.754;2023-08-07T12:33:37;9.80;;;1.52;;
19782;SDS011;10051;40.294;-3.754;2023-08-07T12:36:02;5.55;;;1.42;;
19782;SDS011;10051;40.294;-3.754;2023-08-07T12:38:28;5.15;;;1.40;;
19782;SDS011;10051;40.294;-3.754;2023-08-07T12:40:54;8.95;;;1.50;;
19782;SDS011;10051;40.294;-3.754;2023-08-07T12:43:20;5.93;;;1.40;;
19782;SDS011;10051;40.294;-3.754;2023-08-07T12:45:46;9.88;;;1.50;;
19782;SDS011;10051;40.294;-3.754;2023-08-07T12:48:12;4.75;;;1.60;;
19782;SDS011;10051;40.294;-3.754;2023-08-07T12:50:38;8.55;;;1.80;;
19782;SDS011;10051;40.294;-3.754;2023-08-07T12:53:04;7.75;;;1.50;;
19782;SDS011;10051;40.294;-3.754;2023-08-07T12:55:30;5.70;;;1.38;;
19782;SDS011;10051;40.294;-3.754;2023-08-07T12:57:55;5.85;;;1.25;;
19782;SDS011;10051;40.294;-3.754;2023-08-07T13:00:24;8.13;;;1.38;;
19782;SDS011;10051;40.294;-3.754;2023-08-07T13:02:50;7.25;;;1.60;;
19782;SDS011;10051;40.294;-3.754;2023-08-07T13:05:16;11.95;;;1.50;;
19782;SDS011;10051;40.294;-3.754;2023-08-07T13:07:44;7.50;;;1.58;;
19782;SDS011;10051;40.294;-3.754;2023-08-07T13:10:14;7.53;;;1.50;;
19782;SDS011;10051;40.294;-3.754;2023-08-07T13:12:41;11.07;;;1.85;;
19782;SDS011;10051;40.294;-3.754;2023-08-07T13:15:08;5.75;;;1.48;;
19782;SDS011;10051;40.294;-3.754;2023-08-07T13:17:38;4.63;;;1.50;;
19782;SDS011;10051;40.294;-3.754;2023-08-07T13:20:04;2.85;;;1.30;;
19782;SDS011;10051;40.294;-3.754;2023-08-07T13:22:37;8.50;;;1.73;;
19782;SDS011;10051;40.294;-3.754;2023-08-07T13:25:04;6.43;;;1.60;;
19782;SDS011;10051;40.294;-3.754;2023-08-07T13:27:33;7.97;;;1.50;;
19782;SDS011;10051;40.294;-3.754;2023-08-07T13:30:01;9.88;;;1.50;;
19782;SDS011;10051;40.294;-3.754;2023-08-07T13:32:28;6.40;;;1.48;;
19782;SDS011;10051;40.294;-3.754;2023-08-07T13:34:54;4.90;;;1.40;;
19782;SDS011;10051;40.294;-3.754;2023-08-07T13:37:20;3.50;;;1.58;;
19782;SDS011;10051;40.294;-3.754;2023-08-07T13:39:46;8.27;;;1.60;;
19782;SDS011;10051;40.294;-3.754;2023-08-07T13:42:17;5.70;;;1.38;;
19782;SDS011;10051;40.294;-3.754;2023-08-07T13:44:43;7.00;;;1.60;;
19782;SDS011;10051;40.294;-3.754;2023-08-07T13:47:09;7.78;;;1.30;;
19782;SDS011;10051;40.294;-3.754;2023-08-07T13:49:36;6.53;;;1.55;;
19782;SDS011;10051;40.294;-3.754;2023-08-07T13:52:02;5.20;;;1.30;;
19782;SDS011;10051;40.294;-3.754;2023-08-07T13:54:28;9.80;;;1.60;;
19782;SDS011;10051;40.294;-3.754;2023-08-07T13:56:53;6.45;;;1.65;;
19782;SDS011;10051;40.294;-3.754;2023-08-07T13:59:19;5.72;;;1.67;;
19782;SDS011;10051;40.294;-3.754;2023-08-07T14:01:44;14.63;;;1.60;;
19782;SDS011;10051;40.294;-3.754;2023-08-07T14:04:10;5.40;;;1.45;;
19782;SDS011;10051;40.294;-3.754;2023-08-07T14:06:35;9.52;;;1.60;;
19782;SDS011;10051;40.294;-3.754;2023-08-07T14:09:02;8.50;;;1.40;;
19782;SDS011;10051;40.294;-3.754;2023-08-07T14:11:28;7.65;;;1.55;;
19782;SDS011;10051;40.294;-3.754;2023-08-07T14:13:56;12.15;;;1.48;;
19782;SDS011;10051;40.294;-3.754;2023-08-07T14:16:22;6.18;;;1.48;;
19782;SDS011;10051;40.294;-3.754;2023-08-07T14:18:48;6.57;;;1.52;;
19782;SDS011;10051;40.294;-3.754;2023-08-07T14:21:14;8.15;;;1.40;;
19782;SDS011;10051;40.294;-3.754;2023-08-07T14:23:39;6.25;;;1.58;;
19782;SDS011;10051;40.294;-3.754;2023-08-07T14:26:07;8.43;;;1.67;;
19782;SDS011;10051;40.294;-3.754;2023-08-07T14:28:33;6.88;;;1.33;;
19782;SDS011;10051;40.294;-3.754;2023-08-07T14:30:58;4.80;;;1.48;;
19782;SDS011;10051;40.294;-3.754;2023-08-07T14:33:24;9.80;;;1.58;;
19782;SDS011;10051;40.294;-3.754;2023-08-07T14:35:51;6.75;;;1.70;;